Terminal Aerodrome Forecast
Issued by NWS

Home | Current Version | Previous Version | Text Only | Print | Product List | Glossary On
Versions: 1 2 3 4 5 6 7 8 9
262
FTUS43 KILX 242336
TAFBMI
TAF
KBMI 242336Z 2500/2524 14011KT P6SM SCT250
     FM251400 16014KT P6SM SCT250
     FM251700 16018G25KT P6SM BKN200=

USA.gov is the U.S. government's official web portal to all federal, state and local government web resources and services.